createdAt,value
2023-05-22T00:01:56.791Z,17.10
2023-05-22T00:04:23.851Z,17.10
2023-05-22T00:06:50.763Z,17.00
2023-05-22T00:09:17.987Z,17.00
2023-05-22T00:11:45.095Z,16.80
2023-05-22T00:14:13.737Z,16.90
2023-05-22T00:16:41.356Z,17.00
2023-05-22T00:19:16.539Z,17.10
2023-05-22T00:21:44.257Z,17.00
2023-05-22T00:24:11.056Z,16.90
2023-05-22T00:26:38.148Z,17.00
2023-05-22T00:29:06.011Z,17.10
2023-05-22T00:31:32.946Z,17.10
2023-05-22T00:34:00.071Z,17.20
2023-05-22T00:36:27.081Z,17.10
2023-05-22T00:38:53.960Z,17.10
2023-05-22T00:41:22.423Z,17.10
2023-05-22T00:43:51.121Z,17.00
2023-05-22T00:46:22.844Z,16.90
2023-05-22T00:48:50.123Z,16.90
2023-05-22T00:51:17.073Z,17.00
2023-05-22T00:53:45.094Z,17.00
2023-05-22T00:56:13.234Z,16.90
2023-05-22T00:58:40.199Z,16.90
2023-05-22T01:01:09.693Z,16.90
2023-05-22T01:03:42.393Z,16.90
2023-05-22T01:06:09.359Z,17.00
2023-05-22T01:08:36.096Z,16.70
2023-05-22T01:11:12.653Z,16.80
2023-05-22T01:14:04.301Z,16.60
2023-05-22T01:17:01.194Z,16.60
2023-05-22T01:19:31.170Z,16.60
2023-05-22T01:22:28.569Z,16.60
2023-05-22T01:25:26.634Z,16.70
2023-05-22T01:28:02.493Z,16.60
2023-05-22T01:30:41.361Z,16.60
2023-05-22T01:33:12.330Z,16.60
2023-05-22T01:35:40.626Z,16.40
2023-05-22T01:38:09.133Z,16.50
2023-05-22T01:40:37.350Z,16.50
2023-05-22T01:43:04.755Z,16.40
2023-05-22T01:45:31.931Z,16.40
2023-05-22T01:47:59.048Z,16.40
2023-05-22T01:50:26.670Z,16.40
2023-05-22T01:53:21.191Z,16.30
2023-05-22T01:56:06.536Z,16.30
2023-05-22T01:58:52.887Z,16.30
2023-05-22T02:01:22.644Z,16.00
2023-05-22T02:03:56.667Z,15.90
2023-05-22T02:06:26.271Z,15.90
2023-05-22T02:08:54.210Z,16.00
2023-05-22T02:11:24.632Z,15.90
2023-05-22T02:13:52.286Z,15.80
2023-05-22T02:16:21.862Z,15.70
2023-05-22T02:18:49.020Z,15.80
2023-05-22T02:21:16.040Z,15.90
2023-05-22T02:23:43.216Z,15.90
2023-05-22T02:26:10.120Z,16.00
2023-05-22T02:28:37.001Z,15.80
2023-05-22T02:31:04.183Z,15.80
2023-05-22T02:33:31.184Z,15.80
2023-05-22T02:35:58.048Z,15.60
2023-05-22T02:38:24.970Z,15.60
2023-05-22T02:40:51.891Z,15.50
2023-05-22T02:43:18.694Z,15.60
2023-05-22T02:45:45.644Z,15.60
2023-05-22T02:48:13.282Z,15.60
2023-05-22T02:50:40.535Z,15.50
2023-05-22T02:53:08.457Z,15.50
2023-05-22T02:55:35.349Z,15.50
2023-05-22T02:58:03.271Z,15.50
2023-05-22T03:00:30.124Z,15.60
2023-05-22T03:02:57.036Z,15.60
2023-05-22T03:05:24.022Z,15.50
2023-05-22T03:07:50.983Z,15.50
2023-05-22T03:10:17.821Z,15.40
2023-05-22T03:12:44.787Z,15.30
2023-05-22T03:15:11.991Z,15.30
2023-05-22T03:17:38.913Z,15.10
2023-05-22T03:20:06.946Z,15.10
2023-05-22T03:22:33.817Z,15.10
2023-05-22T03:25:00.633Z,15.20
2023-05-22T03:27:27.629Z,15.20
2023-05-22T03:29:54.445Z,15.30
2023-05-22T03:32:21.304Z,15.40
2023-05-22T03:34:48.274Z,15.10
2023-05-22T03:37:15.170Z,15.10
2023-05-22T03:39:42.053Z,15.10
2023-05-22T03:42:08.899Z,15.10
2023-05-22T03:44:36.046Z,15.10
2023-05-22T03:47:02.903Z,14.90
2023-05-22T03:49:29.766Z,14.80
2023-05-22T03:51:56.719Z,14.90
2023-05-22T03:54:23.591Z,14.60
2023-05-22T03:56:50.810Z,14.50
2023-05-22T03:59:17.773Z,14.40
2023-05-22T04:01:46.597Z,14.50
2023-05-22T04:04:13.605Z,14.50
2023-05-22T04:06:43.838Z,14.30
2023-05-22T04:09:13.959Z,14.40
2023-05-22T04:11:42.188Z,14.40
2023-05-22T04:14:09.597Z,14.40
2023-05-22T04:16:36.467Z,14.40
2023-05-22T04:19:03.656Z,14.50
2023-05-22T04:21:34.460Z,14.60
2023-05-22T04:24:02.223Z,14.70
2023-05-22T04:26:32.252Z,14.70
2023-05-22T04:28:59.238Z,14.70
2023-05-22T04:31:26.326Z,14.80
2023-05-22T04:33:54.713Z,14.70
2023-05-22T04:36:26.732Z,14.70
2023-05-22T04:38:54.151Z,14.90
2023-05-22T04:41:22.774Z,14.80
2023-05-22T04:43:49.829Z,14.80
2023-05-22T04:46:16.799Z,15.00
2023-05-22T04:48:43.791Z,15.00
2023-05-22T04:51:10.809Z,15.00
2023-05-22T04:53:38.773Z,15.10
2023-05-22T04:56:06.579Z,15.20
2023-05-22T04:58:33.667Z,15.20
2023-05-22T05:01:00.587Z,15.20
2023-05-22T05:03:28.501Z,15.20
2023-05-22T05:05:56.787Z,15.20
2023-05-22T05:08:23.720Z,15.10
2023-05-22T05:10:50.673Z,15.00
2023-05-22T05:13:17.558Z,15.00
2023-05-22T05:15:44.457Z,15.00
2023-05-22T05:18:12.398Z,15.10
2023-05-22T05:20:39.530Z,15.10
2023-05-22T05:23:06.574Z,15.20
2023-05-22T05:25:33.534Z,15.30
2023-05-22T05:28:00.436Z,15.10
2023-05-22T05:30:30.120Z,15.10
2023-05-22T05:32:57.050Z,15.10
2023-05-22T05:35:24.003Z,15.10
2023-05-22T05:37:51.775Z,15.10
2023-05-22T05:40:18.825Z,15.30
2023-05-22T05:42:45.723Z,15.30
2023-05-22T05:45:13.957Z,15.40
2023-05-22T05:47:41.373Z,15.50
2023-05-22T05:50:09.701Z,15.50
2023-05-22T05:52:36.643Z,15.50
2023-05-22T05:55:03.624Z,15.70
2023-05-22T05:57:31.735Z,15.70
2023-05-22T05:59:58.699Z,15.60
2023-05-22T06:02:25.692Z,15.60
2023-05-22T06:04:53.895Z,15.50
2023-05-22T06:07:21.023Z,15.70
2023-05-22T06:09:47.891Z,15.70
2023-05-22T06:12:14.884Z,15.80
2023-05-22T06:14:41.714Z,15.90
2023-05-22T06:17:09.346Z,15.90
2023-05-22T06:19:36.633Z,16.10
2023-05-22T06:22:03.735Z,16.10
2023-05-22T06:24:32.483Z,16.10
2023-05-22T06:26:59.604Z,16.00
2023-05-22T06:29:26.676Z,16.00
2023-05-22T06:31:53.571Z,16.00
2023-05-22T06:34:22.480Z,16.20
2023-05-22T06:36:50.598Z,16.10
2023-05-22T06:39:18.675Z,16.00
2023-05-22T06:41:45.913Z,15.90
2023-05-22T06:44:13.077Z,15.80
2023-05-22T06:46:40.101Z,15.70
2023-05-22T06:49:07.125Z,16.00
2023-05-22T06:51:34.330Z,15.70
2023-05-22T06:54:01.382Z,15.70
2023-05-22T06:56:28.150Z,15.80
2023-05-22T06:58:55.079Z,15.80
2023-05-22T07:01:23.290Z,15.80
2023-05-22T07:03:50.228Z,15.80
2023-05-22T07:06:18.299Z,15.80
2023-05-22T07:08:45.348Z,15.80
2023-05-22T07:11:12.194Z,16.00
2023-05-22T07:13:39.157Z,15.90
2023-05-22T07:16:06.470Z,16.00
2023-05-22T07:18:33.655Z,16.10
2023-05-22T07:21:00.869Z,16.20
2023-05-22T07:23:27.732Z,16.20
2023-05-22T07:25:54.754Z,16.10
2023-05-22T07:28:21.626Z,16.00
2023-05-22T07:30:48.507Z,16.20
2023-05-22T07:33:16.184Z,16.50
2023-05-22T07:35:43.832Z,16.40
2023-05-22T07:38:10.703Z,16.30
2023-05-22T07:40:37.854Z,16.30
2023-05-22T07:43:05.207Z,16.40
2023-05-22T07:45:32.060Z,16.40
2023-05-22T07:47:59.141Z,16.60
2023-05-22T07:50:27.094Z,16.60
2023-05-22T07:52:53.924Z,16.70
2023-05-22T07:55:20.878Z,16.60
2023-05-22T07:57:47.766Z,16.60
2023-05-22T08:00:17.072Z,16.80
2023-05-22T08:02:44.146Z,17.00
2023-05-22T08:05:12.347Z,17.00
2023-05-22T08:07:39.610Z,17.20
2023-05-22T08:10:15.689Z,17.40
2023-05-22T08:12:42.548Z,17.70
2023-05-22T08:15:10.127Z,18.00
2023-05-22T08:17:37.603Z,18.10
2023-05-22T08:20:05.924Z,18.40
2023-05-22T08:22:34.280Z,18.60
2023-05-22T08:25:01.288Z,18.50
2023-05-22T08:27:28.249Z,18.70
2023-05-22T08:29:55.100Z,19.00
2023-05-22T08:32:22.100Z,19.10
2023-05-22T08:34:49.310Z,19.20
2023-05-22T08:37:16.237Z,19.50
2023-05-22T08:39:43.124Z,19.30
2023-05-22T08:42:10.157Z,19.70
2023-05-22T08:44:37.255Z,19.70
2023-05-22T08:47:09.862Z,19.60
2023-05-22T08:49:39.406Z,19.60
2023-05-22T08:52:14.019Z,19.80
2023-05-22T08:54:43.493Z,20.10
2023-05-22T08:57:11.316Z,20.10
2023-05-22T08:59:41.125Z,20.10
2023-05-22T09:02:09.731Z,20.30
2023-05-22T09:04:36.609Z,19.90
2023-05-22T09:07:06.024Z,19.80
2023-05-22T09:09:37.939Z,20.10
2023-05-22T09:12:09.825Z,20.60
2023-05-22T09:14:44.008Z,20.30
2023-05-22T09:17:15.472Z,20.20
2023-05-22T09:19:46.414Z,20.60
2023-05-22T09:22:14.198Z,20.80
2023-05-22T09:24:42.674Z,20.90
2023-05-22T09:27:11.135Z,21.20
2023-05-22T09:30:08.942Z,20.90
2023-05-22T09:32:36.157Z,21.00
2023-05-22T09:35:06.906Z,20.60
2023-05-22T09:37:35.594Z,19.70
2023-05-22T09:40:11.824Z,20.00
2023-05-22T09:42:38.843Z,20.10
2023-05-22T09:45:07.219Z,20.80
2023-05-22T09:47:34.779Z,21.20
2023-05-22T09:50:06.369Z,21.40
2023-05-22T09:52:37.829Z,21.30
2023-05-22T09:55:08.805Z,21.20
2023-05-22T09:57:48.375Z,21.30
2023-05-22T10:00:18.104Z,21.40
2023-05-22T10:02:50.847Z,20.90
2023-05-22T10:05:22.050Z,20.80
2023-05-22T10:07:56.158Z,21.30
2023-05-22T10:10:26.234Z,21.70
2023-05-22T10:12:56.002Z,21.80
2023-05-22T10:15:23.724Z,21.90
2023-05-22T10:17:50.819Z,21.60
2023-05-22T10:20:18.969Z,21.90
2023-05-22T10:22:49.081Z,22.10
2023-05-22T10:25:21.956Z,21.80
2023-05-22T10:27:52.297Z,21.50
2023-05-22T10:30:44.593Z,21.70
2023-05-22T10:33:18.231Z,21.50
2023-05-22T10:35:48.297Z,21.90
2023-05-22T10:38:37.062Z,21.60
2023-05-22T10:41:04.527Z,22.00
2023-05-22T10:43:34.387Z,22.00
2023-05-22T10:46:05.810Z,22.20
2023-05-22T10:48:40.522Z,22.10
2023-05-22T10:51:08.810Z,22.20
2023-05-22T10:53:36.641Z,21.90
2023-05-22T10:56:14.868Z,22.10
2023-05-22T10:58:55.666Z,22.30
2023-05-22T11:01:26.425Z,22.50
2023-05-22T11:04:02.022Z,22.60
2023-05-22T11:06:36.042Z,22.40
2023-05-22T11:09:24.429Z,22.60
2023-05-22T11:12:17.474Z,22.60
2023-05-22T11:15:09.032Z,23.10
2023-05-22T11:17:51.886Z,22.90
2023-05-22T11:20:22.402Z,22.90
2023-05-22T11:23:01.216Z,22.80
2023-05-22T11:25:29.901Z,23.50
2023-05-22T11:27:57.575Z,23.20
2023-05-22T11:30:28.622Z,23.10
2023-05-22T11:32:57.440Z,23.30
2023-05-22T11:35:24.777Z,23.80
2023-05-22T11:37:52.945Z,23.70
2023-05-22T11:40:25.604Z,23.60
2023-05-22T11:42:56.359Z,24.10
2023-05-22T11:45:24.054Z,23.80
2023-05-22T11:47:51.003Z,23.90
2023-05-22T11:50:29.437Z,24.10
2023-05-22T11:53:02.885Z,24.10
2023-05-22T11:55:29.842Z,24.00
2023-05-22T11:57:56.828Z,23.80
2023-05-22T12:00:23.784Z,23.70
2023-05-22T12:02:50.850Z,23.40
2023-05-22T12:05:21.453Z,23.60
2023-05-22T12:07:48.378Z,23.80
2023-05-22T12:10:15.670Z,23.50
2023-05-22T12:12:44.917Z,23.10
2023-05-22T12:15:12.050Z,23.00
2023-05-22T12:17:40.012Z,23.40
2023-05-22T12:20:07.416Z,23.70
2023-05-22T12:22:40.527Z,23.70
2023-05-22T12:25:17.419Z,23.20
2023-05-22T12:27:47.803Z,23.10
2023-05-22T12:30:15.875Z,23.30
2023-05-22T12:32:49.336Z,23.20
2023-05-22T12:35:17.748Z,23.40
2023-05-22T12:37:52.412Z,23.80
2023-05-22T12:40:19.759Z,23.80
2023-05-22T12:42:48.413Z,23.80
2023-05-22T12:45:17.777Z,24.10
2023-05-22T12:47:44.781Z,24.10
2023-05-22T12:50:11.923Z,24.10
2023-05-22T12:52:38.840Z,24.40
2023-05-22T12:55:06.250Z,24.20
2023-05-22T12:57:33.147Z,24.30
2023-05-22T13:00:00.119Z,24.20
2023-05-22T13:02:27.164Z,24.40
2023-05-22T13:04:54.031Z,24.80
2023-05-22T13:07:21.138Z,24.90
2023-05-22T13:09:48.004Z,25.00
2023-05-22T13:12:14.961Z,25.10
2023-05-22T13:14:41.797Z,24.80
2023-05-22T13:17:08.899Z,24.80
2023-05-22T13:19:36.182Z,24.80
2023-05-22T13:22:04.920Z,24.70
2023-05-22T13:24:31.874Z,24.40
2023-05-22T13:26:59.128Z,24.50
2023-05-22T13:29:25.994Z,24.70
2023-05-22T13:31:52.829Z,24.60
2023-05-22T13:34:19.813Z,24.50
2023-05-22T13:36:46.885Z,24.30
2023-05-22T13:39:13.765Z,24.30
2023-05-22T13:41:40.865Z,24.20
2023-05-22T13:44:07.827Z,24.50
2023-05-22T13:46:34.755Z,24.50
2023-05-22T13:49:01.745Z,24.70
2023-05-22T13:51:28.700Z,24.50
2023-05-22T13:53:55.587Z,24.30
2023-05-22T13:56:23.268Z,24.10
2023-05-22T13:58:50.132Z,24.30
2023-05-22T14:01:17.023Z,24.20
2023-05-22T14:03:44.823Z,24.30
2023-05-22T14:06:11.913Z,24.60
2023-05-22T14:08:38.945Z,24.20
2023-05-22T14:11:05.967Z,24.10
2023-05-22T14:13:33.054Z,24.20
2023-05-22T14:15:59.926Z,24.10
2023-05-22T14:18:26.826Z,23.90
2023-05-22T14:20:53.864Z,23.90
2023-05-22T14:23:20.858Z,23.80
2023-05-22T14:25:47.775Z,23.80
2023-05-22T14:28:14.991Z,23.50
2023-05-22T14:30:41.854Z,23.30
2023-05-22T14:33:08.832Z,23.10
2023-05-22T14:35:35.668Z,23.00
2023-05-22T14:38:02.619Z,23.00
2023-05-22T14:40:29.544Z,23.10
2023-05-22T14:42:56.374Z,23.30
2023-05-22T14:45:23.434Z,23.30
2023-05-22T14:47:50.663Z,23.10
2023-05-22T14:50:20.224Z,23.20
2023-05-22T14:52:48.098Z,23.30
2023-05-22T14:55:15.277Z,23.00
2023-05-22T14:57:42.250Z,23.00
2023-05-22T15:00:10.927Z,23.00
2023-05-22T15:02:38.138Z,23.10
2023-05-22T15:05:07.026Z,23.10
2023-05-22T15:10:05.491Z,22.90
2023-05-22T15:12:32.634Z,23.10
2023-05-22T15:14:59.655Z,23.10
2023-05-22T15:17:26.636Z,23.20
2023-05-22T15:19:53.606Z,23.40
2023-05-22T15:22:20.761Z,23.50
2023-05-22T15:24:48.295Z,23.40
2023-05-22T15:27:15.540Z,23.40
2023-05-22T15:29:42.477Z,23.40
2023-05-22T15:32:09.728Z,23.50
2023-05-22T15:34:36.724Z,23.40
2023-05-22T15:37:03.679Z,23.40
2023-05-22T15:39:30.496Z,23.40
2023-05-22T15:42:05.794Z,23.30
2023-05-22T15:44:33.483Z,23.20
2023-05-22T15:47:00.446Z,23.10
2023-05-22T15:49:30.210Z,22.90
2023-05-22T15:51:59.000Z,23.00
2023-05-22T15:54:25.902Z,23.10
2023-05-22T15:56:52.827Z,23.10
2023-05-22T15:59:19.696Z,23.00
2023-05-22T16:01:46.750Z,23.00
2023-05-22T16:04:13.746Z,22.90
2023-05-22T16:06:40.759Z,22.90
2023-05-22T16:09:08.098Z,23.00
2023-05-22T16:11:35.093Z,22.80
2023-05-22T16:14:02.048Z,22.90
2023-05-22T16:16:28.969Z,22.90
2023-05-22T16:18:55.884Z,23.00
2023-05-22T16:21:22.791Z,23.00
2023-05-22T16:23:49.855Z,22.90
2023-05-22T16:26:17.150Z,22.80
2023-05-22T16:28:44.037Z,22.80
2023-05-22T16:31:12.992Z,22.60
2023-05-22T16:33:39.944Z,22.70
2023-05-22T16:36:07.237Z,22.60
2023-05-22T16:38:34.371Z,22.50
2023-05-22T16:41:01.430Z,22.30
2023-05-22T16:43:28.405Z,22.30
2023-05-22T16:45:55.459Z,22.40
2023-05-22T16:48:22.376Z,22.40
2023-05-22T16:50:49.240Z,22.40
2023-05-22T16:53:17.322Z,22.40
2023-05-22T16:55:44.431Z,22.50
2023-05-22T16:58:12.811Z,22.40
2023-05-22T17:00:40.359Z,22.40
2023-05-22T17:03:08.226Z,22.50
2023-05-22T17:05:36.828Z,22.50
2023-05-22T17:08:04.545Z,22.30
2023-05-22T17:10:31.463Z,22.30
2023-05-22T17:12:58.351Z,22.30
2023-05-22T17:15:25.228Z,22.20
2023-05-22T17:17:52.176Z,22.20
2023-05-22T17:20:24.907Z,22.30
2023-05-22T17:22:52.852Z,22.10
2023-05-22T17:25:19.804Z,22.00
2023-05-22T17:27:49.790Z,22.00
2023-05-22T17:30:16.726Z,22.00
2023-05-22T17:32:44.896Z,22.00
2023-05-22T17:35:11.880Z,21.90
2023-05-22T17:37:38.763Z,21.80
2023-05-22T17:40:06.517Z,21.80
2023-05-22T17:42:33.493Z,21.80
2023-05-22T17:45:00.427Z,21.90
2023-05-22T17:47:27.340Z,22.00
2023-05-22T17:49:54.196Z,22.10
2023-05-22T17:52:21.145Z,22.10
2023-05-22T17:54:49.923Z,22.00
2023-05-22T17:57:16.823Z,21.90
2023-05-22T17:59:44.494Z,21.90
2023-05-22T18:02:11.356Z,21.70
2023-05-22T18:04:38.417Z,21.60
2023-05-22T18:07:05.540Z,21.50
2023-05-22T18:09:32.839Z,21.50
2023-05-22T18:12:01.695Z,21.50
2023-05-22T18:14:28.663Z,21.50
2023-05-22T18:16:55.698Z,21.50
2023-05-22T18:19:22.598Z,21.60
2023-05-22T18:21:49.626Z,21.60
2023-05-22T18:24:16.626Z,21.50
2023-05-22T18:26:43.479Z,21.40
2023-05-22T18:29:10.411Z,21.40
2023-05-22T18:31:37.388Z,21.40
2023-05-22T18:34:04.327Z,21.50
2023-05-22T18:36:31.879Z,21.30
2023-05-22T18:38:58.727Z,21.30
2023-05-22T18:41:26.586Z,21.30
2023-05-22T18:43:53.433Z,21.30
2023-05-22T18:46:20.418Z,21.10
2023-05-22T18:48:47.317Z,21.20
2023-05-22T18:51:16.550Z,21.30
2023-05-22T18:53:43.483Z,21.30
2023-05-22T18:56:10.360Z,21.30
2023-05-22T18:58:41.390Z,21.30
2023-05-22T19:01:08.686Z,21.20
2023-05-22T19:03:35.853Z,21.20
2023-05-22T19:06:02.888Z,21.20
2023-05-22T19:08:31.180Z,21.00
2023-05-22T19:11:01.363Z,20.80
2023-05-22T19:13:29.479Z,20.80
2023-05-22T19:15:57.378Z,20.70
2023-05-22T19:18:24.719Z,20.50
2023-05-22T19:20:51.645Z,20.40
2023-05-22T19:23:19.009Z,20.40
2023-05-22T19:25:48.946Z,20.40
2023-05-22T19:28:16.022Z,20.50
2023-05-22T19:30:43.234Z,20.60
2023-05-22T19:33:11.291Z,20.50
2023-05-22T19:35:38.740Z,20.30
2023-05-22T19:38:05.909Z,20.30
2023-05-22T19:40:32.865Z,20.30
2023-05-22T19:43:00.911Z,20.30
2023-05-22T19:45:28.390Z,20.40
2023-05-22T19:47:55.868Z,20.20
2023-05-22T19:50:23.134Z,20.30
2023-05-22T19:52:50.129Z,20.20
2023-05-22T19:55:17.008Z,20.40
2023-05-22T19:57:44.620Z,20.10
2023-05-22T20:00:12.558Z,20.20
2023-05-22T20:02:42.515Z,20.00
2023-05-22T20:05:13.090Z,19.90
2023-05-22T20:07:41.807Z,20.00
2023-05-22T20:10:10.303Z,20.00
2023-05-22T20:12:38.111Z,19.80
2023-05-22T20:15:07.025Z,19.80
2023-05-22T20:17:34.552Z,19.50
2023-05-22T20:20:01.552Z,19.40
2023-05-22T20:22:28.522Z,19.30
2023-05-22T20:24:55.881Z,19.20
2023-05-22T20:27:22.942Z,19.20
2023-05-22T20:29:50.365Z,19.10
2023-05-22T20:32:17.453Z,19.00
2023-05-22T20:34:45.499Z,19.00
2023-05-22T20:37:13.741Z,18.80
2023-05-22T20:39:44.367Z,18.70
2023-05-22T20:42:13.273Z,18.80
2023-05-22T20:44:41.290Z,18.70
2023-05-22T20:47:09.327Z,18.40
2023-05-22T20:49:36.281Z,18.40
2023-05-22T20:52:04.604Z,18.30
2023-05-22T20:54:34.803Z,18.20
2023-05-22T20:57:02.186Z,18.20
2023-05-22T20:59:29.371Z,18.10
2023-05-22T21:01:57.837Z,18.00
2023-05-22T21:04:26.020Z,17.80
2023-05-22T21:06:53.034Z,17.90
2023-05-22T21:09:20.050Z,17.70
2023-05-22T21:11:47.059Z,17.70
2023-05-22T21:14:14.181Z,17.40
2023-05-22T21:16:41.190Z,17.50
2023-05-22T21:19:08.208Z,17.60
2023-05-22T21:21:41.498Z,17.50
2023-05-22T21:24:12.320Z,17.50
2023-05-22T21:26:39.549Z,17.30
2023-05-22T21:29:06.660Z,17.40
2023-05-22T21:31:35.558Z,17.10
2023-05-22T21:34:03.195Z,17.20
2023-05-22T21:36:30.132Z,17.20
2023-05-22T21:39:00.251Z,17.10
2023-05-22T21:41:29.940Z,17.00
2023-05-22T21:43:57.612Z,16.90
2023-05-22T21:46:24.551Z,17.00
2023-05-22T21:48:51.744Z,17.00
2023-05-22T21:51:18.678Z,16.70
2023-05-22T21:53:46.668Z,16.80
2023-05-22T21:56:13.553Z,16.70
2023-05-22T21:58:40.703Z,16.80
2023-05-22T22:01:07.855Z,16.80
2023-05-22T22:03:34.972Z,16.70
2023-05-22T22:06:02.157Z,16.60
2023-05-22T22:08:29.488Z,16.60
2023-05-22T22:10:57.786Z,16.50
2023-05-22T22:13:24.838Z,16.60
2023-05-22T22:15:51.852Z,16.70
2023-05-22T22:18:18.951Z,16.70
2023-05-22T22:20:45.936Z,16.80
2023-05-22T22:23:12.943Z,16.90
2023-05-22T22:25:39.791Z,16.80
2023-05-22T22:28:07.410Z,16.70
2023-05-22T22:30:35.327Z,16.60
2023-05-22T22:33:02.604Z,16.70
2023-05-22T22:35:29.799Z,16.70
2023-05-22T22:37:57.112Z,16.80
2023-05-22T22:40:38.027Z,16.70
2023-05-22T22:43:05.254Z,16.60
2023-05-22T22:45:32.097Z,16.60
2023-05-22T22:48:00.578Z,16.60
2023-05-22T22:50:28.182Z,16.60
2023-05-22T22:52:55.577Z,16.60
2023-05-22T22:55:22.741Z,16.40
2023-05-22T22:57:50.150Z,16.50
2023-05-22T23:00:18.975Z,16.50
2023-05-22T23:02:46.182Z,16.50
2023-05-22T23:05:14.717Z,16.50
2023-05-22T23:07:41.886Z,16.40
2023-05-22T23:10:09.267Z,16.20
2023-05-22T23:12:36.359Z,16.30
2023-05-22T23:15:03.935Z,16.30
2023-05-22T23:17:30.951Z,16.20
2023-05-22T23:19:58.079Z,16.20
2023-05-22T23:22:25.146Z,16.20
2023-05-22T23:24:52.148Z,16.10
2023-05-22T23:27:19.180Z,16.20
2023-05-22T23:29:46.152Z,16.30
2023-05-22T23:32:14.714Z,16.10
2023-05-22T23:34:42.523Z,15.80
2023-05-22T23:37:10.086Z,15.90
2023-05-22T23:39:37.025Z,16.00
2023-05-22T23:42:04.066Z,16.00
2023-05-22T23:44:32.006Z,16.00
2023-05-22T23:47:00.016Z,15.80
2023-05-22T23:49:27.041Z,15.90
2023-05-22T23:51:53.952Z,15.80
2023-05-22T23:54:21.015Z,15.80
2023-05-22T23:56:47.970Z,15.90
2023-05-22T23:59:15.734Z,15.80
